Time;durP1;ratioP1;P1;durP2;ratioP2;P2;SDS_P1;SDS_P2;PMS_P1;PMS_P2;Temp;Humidity;BMP_temperature;BMP_pressure;BME280_temperature;BME280_humidity;BME280_pressure;Samples;Min_cycle;Max_cycle;Signal;HPM_P1;HPM_P2
2024/04/03 00:00:01;;;;;;;2.50;1.03;;;5.50;1.00;;;;;;4997328;28;20530;-69
2024/04/03 00:02:26;;;;;;;4.13;1.77;;;5.60;1.00;;;;;;5014744;28;20217;-69
2024/04/03 00:04:52;;;;;;;2.43;1.50;;;5.60;1.00;;;;;;5013537;28;20476;-69
2024/04/03 00:07:18;;;;;;;2.67;1.13;;;5.70;1.00;;;;;;5015116;28;20219;-69
2024/04/03 00:09:43;;;;;;;2.80;1.40;;;5.80;1.00;;;;;;5015015;28;20636;-68
2024/04/03 00:12:09;;;;;;;2.20;1.00;;;5.90;1.00;;;;;;5014352;28;20546;-69
2024/04/03 00:14:34;;;;;;;5.17;1.13;;;6.00;1.00;;;;;;5013349;28;20215;-68
2024/04/03 00:17:00;;;;;;;3.20;1.60;;;6.10;1.00;;;;;;5014718;28;20172;-68
2024/04/03 00:19:26;;;;;;;2.37;0.97;;;6.20;1.00;;;;;;5014556;28;20176;-69
2024/04/03 00:21:51;;;;;;;3.30;1.10;;;6.30;1.00;;;;;;5014224;28;20184;-69
2024/04/03 00:24:17;;;;;;;1.60;0.80;;;6.40;1.00;;;;;;5014697;28;20211;-69
2024/04/03 00:26:42;;;;;;;2.10;1.00;;;6.40;1.00;;;;;;5013349;28;20184;-68
2024/04/03 00:29:08;;;;;;;4.27;1.80;;;6.50;1.00;;;;;;5014247;28;20188;-69
2024/04/03 00:31:35;;;;;;;1.93;1.07;;;6.60;1.00;;;;;;5014216;28;20216;-69
2024/04/03 00:34:02;;;;;;;3.70;1.23;;;6.60;1.00;;;;;;5014213;28;20470;-69
2024/04/03 00:36:27;;;;;;;3.30;1.30;;;6.60;1.00;;;;;;5014176;28;20427;-68
2024/04/03 00:38:53;;;;;;;3.30;1.77;;;6.70;1.00;;;;;;5014318;28;20407;-68
2024/04/03 00:41:19;;;;;;;2.87;1.30;;;6.70;1.00;;;;;;5014265;28;20180;-69
2024/04/03 00:43:44;;;;;;;1.77;0.83;;;6.70;1.00;;;;;;5014148;28;20212;-68
2024/04/03 00:46:10;;;;;;;2.97;1.43;;;6.80;1.00;;;;;;5014492;28;20438;-68
2024/04/03 00:48:36;;;;;;;4.20;1.13;;;6.90;1.00;;;;;;5014325;28;20191;-68
2024/04/03 00:51:03;;;;;;;2.27;1.20;;;7.00;1.00;;;;;;5012275;28;20176;-69
2024/04/03 00:53:29;;;;;;;3.77;0.80;;;7.10;1.00;;;;;;5014284;28;20251;-70
2024/04/03 00:55:55;;;;;;;2.30;1.23;;;7.20;1.00;;;;;;5013864;28;20435;-69
2024/04/03 00:58:20;;;;;;;2.10;1.10;;;7.20;1.00;;;;;;5013134;28;20408;-69
2024/04/03 01:00:46;;;;;;;3.53;1.33;;;7.20;1.00;;;;;;5013566;28;20494;-69
2024/04/03 01:03:12;;;;;;;2.87;1.57;;;7.20;1.00;;;;;;5013966;28;20206;-69
2024/04/03 01:05:37;;;;;;;3.10;1.10;;;7.20;1.00;;;;;;5014025;28;20193;-68
2024/04/03 01:08:03;;;;;;;3.17;1.53;;;7.30;1.00;;;;;;5014120;28;20192;-67
2024/04/03 01:10:29;;;;;;;1.93;1.13;;;7.30;1.00;;;;;;5013353;28;20183;-69
2024/04/03 01:12:57;;;;;;;2.43;1.30;;;7.30;1.00;;;;;;5013777;28;20285;-68
2024/04/03 01:15:23;;;;;;;2.10;1.10;;;7.20;1.00;;;;;;5013682;28;20474;-69
2024/04/03 01:17:48;;;;;;;1.90;1.00;;;7.20;1.00;;;;;;5012775;28;20446;-70
2024/04/03 01:20:16;;;;;;;2.23;1.10;;;7.20;1.00;;;;;;5013456;28;20467;-68
2024/04/03 01:22:41;;;;;;;1.70;1.00;;;7.10;1.00;;;;;;5013384;28;20202;-68
2024/04/03 01:25:07;;;;;;;3.67;1.50;;;7.10;1.00;;;;;;5013579;28;20416;-68
2024/04/03 01:27:33;;;;;;;3.17;1.40;;;7.10;1.00;;;;;;5013879;28;20673;-68
2024/04/03 01:29:58;;;;;;;1.90;1.00;;;7.00;1.00;;;;;;5013609;28;20252;-68
2024/04/03 01:32:24;;;;;;;3.63;1.20;;;7.00;1.00;;;;;;5014421;28;20210;-68
2024/04/03 01:34:50;;;;;;;2.60;1.17;;;6.90;1.00;;;;;;5018589;28;20200;-68
2024/04/03 01:37:20;;;;;;;3.60;0.97;;;6.90;1.00;;;;;;5013736;28;20183;-69
2024/04/03 01:39:48;;;;;;;3.27;1.30;;;6.90;1.00;;;;;;5013285;28;20569;-68
2024/04/03 01:42:14;;;;;;;2.40;1.00;;;6.80;1.00;;;;;;5013275;28;20505;-68
2024/04/03 01:44:40;;;;;;;2.00;0.93;;;6.80;1.00;;;;;;5013501;28;20837;-68
2024/04/03 01:47:05;;;;;;;5.00;1.53;;;6.70;1.00;;;;;;5012090;28;20906;-68
2024/04/03 01:49:31;;;;;;;2.63;1.20;;;6.70;1.00;;;;;;5012231;28;20211;-69
2024/04/03 01:51:57;;;;;;;3.00;1.27;;;6.70;1.00;;;;;;5013383;28;20214;-68
2024/04/03 01:54:22;;;;;;;2.50;1.23;;;6.70;1.00;;;;;;5013063;28;20553;-69
2024/04/03 01:56:48;;;;;;;2.80;1.83;;;6.70;1.00;;;;;;5013276;28;20655;-69
2024/04/03 01:59:14;;;;;;;1.87;1.17;;;6.80;1.00;;;;;;5013465;28;20644;-69
2024/04/03 02:01:39;;;;;;;4.60;1.60;;;6.80;1.00;;;;;;5012767;28;20658;-68
2024/04/03 02:04:05;;;;;;;2.63;1.30;;;6.90;1.00;;;;;;5012873;28;20221;-69
2024/04/03 02:06:31;;;;;;;3.50;1.00;;;7.00;1.00;;;;;;5012885;28;20721;-69
2024/04/03 02:08:56;;;;;;;2.03;1.00;;;7.10;1.00;;;;;;5012777;28;20176;-69
2024/04/03 02:11:22;;;;;;;5.67;2.13;;;7.20;1.00;;;;;;5011861;28;21012;-68
2024/04/03 02:13:47;;;;;;;2.77;1.10;;;7.30;1.00;;;;;;5014859;28;20204;-69
2024/04/03 02:16:13;;;;;;;1.90;1.20;;;7.40;1.00;;;;;;5019822;28;20243;-70
2024/04/03 02:18:39;;;;;;;2.07;1.10;;;7.50;1.00;;;;;;5018312;28;20197;-69
2024/04/03 02:21:05;;;;;;;1.83;1.07;;;7.60;1.00;;;;;;5022393;28;20519;-69
2024/04/03 02:23:31;;;;;;;3.90;1.60;;;7.70;1.00;;;;;;5016644;28;20224;-68
2024/04/03 02:25:57;;;;;;;3.43;1.27;;;7.80;1.00;;;;;;5013660;28;20188;-68
2024/04/03 02:28:22;;;;;;;2.33;1.03;;;7.90;1.00;;;;;;5013051;28;20416;-68
2024/04/03 02:30:48;;;;;;;2.87;1.00;;;7.90;1.00;;;;;;5012726;28;20240;-69
2024/04/03 02:33:13;;;;;;;2.00;0.97;;;8.00;1.00;;;;;;5012737;28;20600;-69
2024/04/03 02:35:39;;;;;;;1.83;1.10;;;8.00;1.00;;;;;;5012382;28;20214;-68
2024/04/03 02:38:04;;;;;;;2.20;1.00;;;8.10;1.00;;;;;;5012231;28;20500;-69
2024/04/03 02:40:30;;;;;;;3.67;1.10;;;8.20;1.00;;;;;;5011602;28;20192;-69
2024/04/03 02:42:55;;;;;;;2.53;1.27;;;8.30;1.00;;;;;;5011710;28;20214;-68
2024/04/03 02:45:21;;;;;;;2.57;0.90;;;8.30;1.00;;;;;;5012001;28;20309;-69
2024/04/03 02:47:46;;;;;;;3.10;1.00;;;8.30;1.00;;;;;;5011989;28;20571;-68
2024/04/03 02:50:12;;;;;;;5.93;1.50;;;8.30;1.00;;;;;;5011433;28;20179;-69
2024/04/03 02:52:38;;;;;;;2.80;1.27;;;8.30;1.00;;;;;;5011872;28;20223;-69
2024/04/03 02:55:04;;;;;;;3.07;1.97;;;8.30;1.00;;;;;;5012009;28;20219;-68
2024/04/03 02:57:30;;;;;;;4.53;2.10;;;8.20;1.00;;;;;;5012319;28;20175;-69
2024/04/03 02:59:56;;;;;;;5.07;2.40;;;8.10;1.00;;;;;;5011548;28;20432;-69
2024/04/03 03:02:22;;;;;;;4.00;2.33;;;8.00;1.00;;;;;;5011788;28;20781;-69
2024/04/03 03:04:47;;;;;;;5.13;2.30;;;7.90;1.00;;;;;;5012042;28;20236;-68
2024/04/03 03:07:13;;;;;;;3.30;1.77;;;7.80;1.00;;;;;;5012086;28;20183;-67
2024/04/03 03:09:38;;;;;;;2.93;1.67;;;7.90;1.00;;;;;;5011546;28;20276;-68
2024/04/03 03:12:04;;;;;;;3.40;1.90;;;7.80;1.00;;;;;;5011952;28;20196;-69
2024/04/03 03:14:30;;;;;;;5.47;2.00;;;7.80;1.00;;;;;;5010408;28;20235;-68
2024/04/03 03:16:57;;;;;;;6.20;2.03;;;7.80;1.00;;;;;;5012294;28;20854;-68
2024/04/03 03:19:22;;;;;;;4.60;2.10;;;7.80;1.00;;;;;;5011344;28;20186;-68
2024/04/03 03:21:48;;;;;;;2.50;1.40;;;7.70;1.00;;;;;;5011589;28;20416;-68
2024/04/03 03:24:14;;;;;;;3.90;1.50;;;7.70;1.00;;;;;;5011891;28;20476;-67
2024/04/03 03:26:39;;;;;;;2.23;1.20;;;7.70;1.00;;;;;;5011589;28;20191;-68
2024/04/03 03:29:05;;;;;;;3.00;1.40;;;7.80;1.00;;;;;;5011244;28;20653;-68
2024/04/03 03:31:30;;;;;;;2.17;1.20;;;7.80;1.00;;;;;;5011712;28;20190;-68
2024/04/03 03:33:56;;;;;;;3.40;1.33;;;7.70;1.00;;;;;;5011585;28;20206;-68
2024/04/03 03:36:22;;;;;;;2.80;1.27;;;7.70;1.00;;;;;;5011421;28;20638;-67
2024/04/03 03:38:47;;;;;;;5.20;1.17;;;7.80;1.00;;;;;;5010981;28;20668;-68
2024/04/03 03:41:13;;;;;;;2.10;1.20;;;7.80;1.00;;;;;;5011231;28;20512;-68
2024/04/03 03:43:38;;;;;;;7.70;1.43;;;7.90;1.00;;;;;;5011686;28;20764;-68
2024/04/03 03:46:04;;;;;;;2.90;1.33;;;8.00;1.00;;;;;;5011174;28;20620;-68
2024/04/03 03:54:02;;;;;;;1.97;1.00;;;8.10;1.00;;;;;;5011501;28;20471;-67
2024/04/03 03:56:27;;;;;;;4.17;1.10;;;8.10;1.00;;;;;;5011106;28;20421;-67
2024/04/03 03:58:53;;;;;;;3.77;1.20;;;8.10;1.00;;;;;;5010975;28;20583;-68
2024/04/03 04:01:18;;;;;;;2.50;1.30;;;8.20;1.00;;;;;;5012193;28;20182;-68
2024/04/03 04:03:44;;;;;;;2.03;1.00;;;8.20;1.00;;;;;;5011340;28;20195;-68
2024/04/03 04:06:10;;;;;;;2.50;1.13;;;8.20;1.00;;;;;;5011158;28;20257;-68
2024/04/03 04:08:35;;;;;;;2.43;1.20;;;8.20;1.00;;;;;;5011044;28;20543;-69
2024/04/03 04:11:02;;;;;;;2.23;0.80;;;8.30;1.00;;;;;;5011056;28;20189;-68
2024/04/03 04:13:27;;;;;;;3.97;1.13;;;8.30;1.00;;;;;;5010900;28;20221;-68
2024/04/03 04:15:53;;;;;;;2.57;1.00;;;8.40;1.00;;;;;;5011096;28;20500;-68
2024/04/03 04:18:19;;;;;;;1.93;1.23;;;8.50;1.00;;;;;;5010821;28;20207;-68
2024/04/03 04:20:55;;;;;;;2.23;1.10;;;8.50;1.00;;;;;;5009518;28;20187;-68
2024/04/03 04:23:21;;;;;;;3.30;1.10;;;8.50;1.00;;;;;;5009517;28;20198;-67
2024/04/03 04:25:55;;;;;;;1.80;1.07;;;8.60;1.00;;;;;;5011017;28;20431;-67
2024/04/03 04:28:21;;;;;;;6.93;1.60;;;8.60;1.00;;;;;;5010748;28;20452;-67
2024/04/03 04:30:54;;;;;;;5.27;1.07;;;8.70;1.00;;;;;;5010652;28;20430;-67
2024/04/03 04:33:20;;;;;;;2.17;1.00;;;8.70;1.00;;;;;;5011221;28;20802;-67
2024/04/03 04:35:55;;;;;;;2.00;1.27;;;8.70;1.00;;;;;;5014370;28;20457;-68
2024/04/03 04:38:21;;;;;;;2.97;1.20;;;8.70;1.00;;;;;;5014332;28;20417;-68
2024/04/03 04:40:54;;;;;;;3.07;1.43;;;8.80;1.00;;;;;;5014848;28;20456;-68
2024/04/03 04:43:20;;;;;;;2.57;1.10;;;8.80;1.00;;;;;;5014234;28;20461;-68
2024/04/03 04:45:45;;;;;;;2.20;1.30;;;8.80;1.00;;;;;;5014482;28;20753;-67
2024/04/03 04:48:11;;;;;;;3.43;1.40;;;8.80;1.00;;;;;;5013860;28;20277;-68
2024/04/03 04:50:36;;;;;;;2.87;1.20;;;8.80;1.00;;;;;;5013886;28;20183;-67
2024/04/03 04:53:03;;;;;;;2.00;1.20;;;8.80;1.00;;;;;;5013926;28;20214;-67
2024/04/03 04:55:29;;;;;;;2.13;1.17;;;8.80;1.00;;;;;;5013926;28;20338;-68
2024/04/03 04:57:54;;;;;;;1.70;1.07;;;8.80;1.00;;;;;;5013836;28;20631;-67
2024/04/03 05:00:20;;;;;;;2.30;1.13;;;8.80;1.00;;;;;;5013775;28;20708;-67
2024/04/03 05:02:45;;;;;;;3.90;1.43;;;8.80;1.00;;;;;;5014190;28;20571;-68
2024/04/03 05:05:11;;;;;;;2.50;1.10;;;8.80;1.00;;;;;;5014372;28;20199;-67
2024/04/03 05:07:36;;;;;;;2.90;1.50;;;8.80;1.00;;;;;;5014688;28;20193;-68
2024/04/03 05:10:03;;;;;;;3.13;1.70;;;8.80;1.00;;;;;;5014652;28;20188;-67
2024/04/03 05:12:29;;;;;;;5.93;2.37;;;8.60;1.00;;;;;;5017100;28;20543;-67
2024/04/03 05:14:54;;;;;;;3.03;1.87;;;8.40;1.00;;;;;;5016538;28;20465;-67
2024/04/03 05:17:20;;;;;;;3.50;1.70;;;8.30;1.00;;;;;;5015144;28;20187;-67
2024/04/03 05:19:45;;;;;;;6.20;1.63;;;8.10;1.00;;;;;;5014139;28;20264;-68
2024/04/03 05:22:14;;;;;;;3.80;1.90;;;8.10;1.00;;;;;;5014444;28;20179;-67
2024/04/03 05:24:40;;;;;;;4.20;2.03;;;8.10;1.00;;;;;;5013909;28;20574;-69
2024/04/03 05:27:05;;;;;;;4.13;2.30;;;8.00;1.00;;;;;;5012615;28;20426;-68
2024/04/03 05:29:31;;;;;;;3.50;2.23;;;8.00;1.00;;;;;;5013547;28;20629;-69
2024/04/03 05:31:56;;;;;;;4.13;2.00;;;7.90;1.00;;;;;;5012573;28;20686;-69
2024/04/03 05:34:22;;;;;;;5.50;2.80;;;7.80;1.00;;;;;;5013661;28;20206;-68
2024/04/03 05:36:47;;;;;;;2.50;1.57;;;7.80;1.00;;;;;;5013833;28;20188;-69
2024/04/03 05:39:13;;;;;;;3.43;1.87;;;7.70;1.00;;;;;;5013309;28;20234;-67
2024/04/03 05:41:38;;;;;;;4.27;2.20;;;7.60;1.00;;;;;;5013758;28;20234;-68
2024/04/03 05:44:04;;;;;;;4.33;1.50;;;7.60;1.00;;;;;;5013373;28;20215;-67
2024/04/03 05:46:29;;;;;;;2.80;1.70;;;7.50;1.00;;;;;;5013383;28;20267;-68
2024/04/03 05:48:55;;;;;;;10.40;1.83;;;7.40;1.00;;;;;;5012826;28;20185;-68
2024/04/03 05:51:20;;;;;;;3.80;1.73;;;7.40;1.00;;;;;;5013525;28;20191;-68
2024/04/03 05:53:46;;;;;;;3.77;1.60;;;7.40;1.00;;;;;;5013013;28;20231;-68
2024/04/03 05:56:12;;;;;;;3.00;1.40;;;7.50;1.00;;;;;;5013414;28;20204;-67
2024/04/03 05:58:39;;;;;;;5.10;1.83;;;7.50;1.00;;;;;;5012803;28;20184;-68
2024/04/03 06:01:06;;;;;;;4.00;2.20;;;7.60;1.00;;;;;;5013187;28;20448;-68
2024/04/03 06:03:32;;;;;;;3.20;2.53;;;7.70;1.00;;;;;;5012872;28;20432;-68
2024/04/03 06:05:59;;;;;;;5.20;2.40;;;7.70;1.00;;;;;;5013089;28;20413;-68
2024/04/03 06:08:25;;;;;;;3.67;2.20;;;7.70;1.00;;;;;;5013002;28;20181;-68
2024/04/03 06:10:52;;;;;;;3.40;1.73;;;7.70;1.00;;;;;;5013029;28;20421;-67
2024/04/03 06:13:18;;;;;;;8.60;2.30;;;7.70;1.00;;;;;;5014032;28;20913;-68
2024/04/03 06:15:44;;;;;;;5.37;2.63;;;7.80;1.00;;;;;;5013833;28;20507;-68
2024/04/03 06:18:11;;;;;;;5.10;2.33;;;7.80;1.00;;;;;;5013138;28;20447;-67
2024/04/03 06:20:37;;;;;;;5.20;2.50;;;7.90;1.00;;;;;;5013018;28;20407;-67
2024/04/03 06:23:03;;;;;;;4.43;2.30;;;7.90;1.00;;;;;;5012809;28;20497;-67
2024/04/03 06:25:29;;;;;;;6.37;2.60;;;8.00;1.00;;;;;;5012818;28;20187;-68
2024/04/03 06:27:54;;;;;;;4.00;2.00;;;8.20;1.00;;;;;;5012405;28;20425;-67
2024/04/03 06:30:21;;;;;;;3.47;2.07;;;8.30;1.00;;;;;;5012738;28;20413;-67
2024/04/03 06:32:47;;;;;;;3.03;1.70;;;8.50;1.00;;;;;;5012782;28;20206;-68
2024/04/03 06:35:13;;;;;;;3.60;2.10;;;8.50;1.00;;;;;;5015681;28;20459;-68
2024/04/03 06:37:40;;;;;;;3.87;1.73;;;8.50;1.00;;;;;;5018661;28;20298;-68
2024/04/03 06:40:07;;;;;;;3.60;2.03;;;8.60;1.00;;;;;;5019982;28;20646;-68
2024/04/03 06:42:32;;;;;;;4.67;2.43;;;8.70;1.00;;;;;;5015058;28;20424;-67
2024/04/03 06:44:59;;;;;;;4.53;1.80;;;8.80;1.00;;;;;;5018429;28;20440;-68
2024/04/03 06:47:26;;;;;;;3.57;2.47;;;8.90;1.00;;;;;;5012205;28;20580;-67
2024/04/03 06:49:56;;;;;;;3.30;2.30;;;8.90;1.00;;;;;;5011964;28;20860;-67
2024/04/03 06:52:25;;;;;;;11.93;3.40;;;9.00;1.00;;;;;;5011869;28;20524;-67
2024/04/03 06:54:51;;;;;;;3.30;1.93;;;9.20;1.00;;;;;;5005092;28;20464;-67
2024/04/03 06:57:17;;;;;;;5.37;2.73;;;9.10;1.00;;;;;;5007995;28;20438;-67
2024/04/03 06:59:42;;;;;;;4.33;3.30;;;9.00;1.00;;;;;;5007273;28;20436;-67
2024/04/03 07:02:08;;;;;;;7.40;2.60;;;9.10;1.00;;;;;;5007921;28;20650;-67
2024/04/03 07:04:34;;;;;;;7.00;3.47;;;9.00;1.00;;;;;;5008285;28;20233;-67
2024/04/03 07:07:02;;;;;;;8.63;3.17;;;9.00;1.00;;;;;;5008760;28;20194;-68
2024/04/03 07:09:27;;;;;;;6.93;2.70;;;9.20;1.00;;;;;;5007351;28;20189;-67
2024/04/03 07:11:53;;;;;;;5.50;3.10;;;8.90;1.00;;;;;;5007961;28;20488;-67
2024/04/03 07:14:18;;;;;;;5.73;2.80;;;8.80;1.00;;;;;;5007240;28;20221;-67
2024/04/03 07:16:46;;;;;;;3.87;2.30;;;8.80;1.00;;;;;;5007345;28;20211;-67
2024/04/03 07:19:11;;;;;;;10.10;3.07;;;8.70;1.00;;;;;;5017126;28;20457;-67
2024/04/03 07:21:40;;;;;;;4.33;2.43;;;8.80;1.00;;;;;;5009081;28;20536;-68
2024/04/03 07:24:06;;;;;;;4.93;2.30;;;8.80;1.00;;;;;;5005736;28;20214;-69
2024/04/03 07:26:32;;;;;;;5.47;2.73;;;8.90;1.00;;;;;;5008284;28;20476;-69
2024/04/03 07:28:57;;;;;;;6.07;3.63;;;9.10;1.00;;;;;;5016352;28;20461;-69
2024/04/03 07:31:23;;;;;;;5.57;2.60;;;9.10;1.00;;;;;;5010838;28;20207;-68
2024/04/03 07:33:49;;;;;;;3.70;2.07;;;9.10;1.00;;;;;;5003682;28;20212;-68
2024/04/03 07:36:15;;;;;;;3.00;2.20;;;9.10;1.00;;;;;;5005182;28;20433;-67
2024/04/03 07:38:40;;;;;;;4.47;1.83;;;9.10;1.00;;;;;;5007537;28;20506;-68
2024/04/03 07:41:06;;;;;;;3.87;1.70;;;9.10;1.00;;;;;;5007448;28;20191;-68
2024/04/03 07:43:31;;;;;;;3.10;1.70;;;9.20;1.00;;;;;;5011798;28;20268;-68
2024/04/03 07:45:58;;;;;;;7.70;2.73;;;9.30;1.00;;;;;;5012885;28;20195;-69
2024/04/03 07:48:24;;;;;;;4.57;2.87;;;9.70;1.00;;;;;;5012777;28;20754;-68
2024/04/03 07:50:59;;;;;;;5.50;2.57;;;10.20;1.00;;;;;;5009436;28;20471;-68
2024/04/03 07:53:25;;;;;;;5.97;2.30;;;10.60;1.00;;;;;;5018851;28;20512;-68
2024/04/03 07:55:50;;;;;;;3.83;1.97;;;10.90;1.00;;;;;;5013187;28;21025;-68
2024/04/03 07:58:16;;;;;;;3.13;2.00;;;11.00;1.00;;;;;;5017540;28;20186;-68
2024/04/03 08:00:41;;;;;;;4.87;1.43;;;11.20;1.00;;;;;;5014609;28;20188;-68
2024/04/03 08:03:07;;;;;;;2.97;2.07;;;11.40;1.00;;;;;;5012654;28;20695;-69
2024/04/03 08:05:32;;;;;;;8.00;3.30;;;11.80;1.00;;;;;;5015083;28;20199;-70
2024/04/03 08:07:58;;;;;;;5.57;2.50;;;12.20;1.00;;;;;;5022040;28;20589;-69
2024/04/03 08:10:24;;;;;;;4.73;3.07;;;;;;;;;;5022794;28;20207;-69
2024/04/03 08:12:49;;;;;;;7.20;2.30;;;13.30;1.00;;;;;;5022491;28;20321;-70
2024/04/03 08:15:15;;;;;;;5.60;2.50;;;14.00;1.00;;;;;;5025180;28;20567;-70
2024/04/03 08:17:41;;;;;;;3.20;2.37;;;14.60;1.00;;;;;;5020428;28;20269;-69
2024/04/03 08:20:07;;;;;;;2.50;1.90;;;16.40;1.00;;;;;;5020874;28;20184;-71
2024/04/03 08:22:33;;;;;;;2.10;1.53;;;15.80;1.00;;;;;;5020493;28;20928;-71
2024/04/03 08:25:00;;;;;;;3.13;1.90;;;;;;;;;;5022031;28;20442;-71
2024/04/03 08:27:26;;;;;;;3.70;2.53;;;;;;;;;;5020078;28;20543;-70
2024/04/03 08:29:55;;;;;;;2.67;2.00;;;18.70;1.00;;;;;;5014902;28;20441;-70
2024/04/03 08:32:21;;;;;;;3.03;2.37;;;18.90;1.00;;;;;;5017396;28;20537;-70
2024/04/03 08:34:51;;;;;;;3.03;2.00;;;18.70;1.00;;;;;;5017360;28;20568;-70
2024/04/03 08:37:19;;;;;;;7.07;2.00;;;18.20;1.00;;;;;;5017571;28;20219;-70
2024/04/03 08:39:47;;;;;;;2.27;2.07;;;17.70;1.00;;;;;;5015817;28;20449;-68
2024/04/03 08:42:13;;;;;;;4.93;2.10;;;17.80;1.00;;;;;;5023166;28;20520;-69
2024/04/03 08:44:39;;;;;;;2.23;1.63;;;17.70;1.00;;;;;;5021876;28;20637;-69
2024/04/03 08:47:05;;;;;;;2.37;1.67;;;17.50;1.00;;;;;;5037207;28;20732;-69
2024/04/03 08:49:33;;;;;;;3.00;1.60;;;17.60;1.00;;;;;;5020809;28;20976;-69
2024/04/03 08:52:02;;;;;;;2.13;1.63;;;17.50;1.00;;;;;;5013406;28;20430;-69
2024/04/03 08:54:29;;;;;;;3.30;1.90;;;17.40;1.00;;;;;;5021686;28;20480;-69
2024/04/03 08:56:55;;;;;;;3.50;1.73;;;17.30;1.00;;;;;;5036671;28;20506;-68
2024/04/03 08:59:21;;;;;;;2.63;1.70;;;17.40;1.00;;;;;;5019568;28;20496;-70
2024/04/03 09:01:50;;;;;;;2.80;1.93;;;17.50;1.00;;;;;;5020593;28;20792;-69
2024/04/03 09:04:21;;;;;;;2.33;1.70;;;17.70;1.00;;;;;;5016437;28;20584;-69
2024/04/03 09:06:47;;;;;;;3.80;1.93;;;18.00;1.00;;;;;;5015901;28;20429;-70
2024/04/03 09:09:20;;;;;;;2.00;1.80;;;18.10;1.00;;;;;;5012110;28;20435;-69
2024/04/03 09:11:48;;;;;;;2.17;1.97;;;18.40;1.00;;;;;;5015989;28;20492;-70
2024/04/03 09:14:20;;;;;;;2.10;1.90;;;18.70;1.00;;;;;;5028549;28;20478;-69
2024/04/03 09:16:46;;;;;;;3.10;1.80;;;18.40;1.00;;;;;;5024232;28;20434;-69
2024/04/03 09:19:12;;;;;;;2.43;2.10;;;18.60;1.00;;;;;;5017290;28;20442;-69
2024/04/03 09:21:38;;;;;;;2.53;1.90;;;18.60;1.00;;;;;;5013845;28;20442;-68
2024/04/03 09:24:03;;;;;;;4.13;2.10;;;18.10;1.00;;;;;;5015034;28;20454;-69
2024/04/03 09:26:29;;;;;;;3.30;2.10;;;18.00;1.00;;;;;;5018623;28;20226;-69
2024/04/03 09:29:02;;;;;;;2.00;1.80;;;17.80;1.00;;;;;;5015457;28;20194;-69
2024/04/03 09:31:28;;;;;;;2.00;1.80;;;17.60;1.00;;;;;;5018770;28;20223;-69
2024/04/03 09:33:55;;;;;;;2.40;2.03;;;17.40;1.00;;;;;;5013695;28;20946;-70
2024/04/03 09:36:22;;;;;;;6.33;3.00;;;17.20;1.00;;;;;;5020382;28;20450;-69
2024/04/03 09:38:49;;;;;;;2.23;2.03;;;17.20;1.00;;;;;;5014693;28;20433;-69
2024/04/03 09:41:18;;;;;;;1.93;1.73;;;17.50;1.00;;;;;;5014071;28;20823;-69
2024/04/03 09:43:45;;;;;;;2.03;1.83;;;17.50;1.00;;;;;;5018807;28;20568;-72
2024/04/03 09:46:13;;;;;;;2.20;1.80;;;17.60;1.00;;;;;;5026023;28;20968;-70
2024/04/03 09:48:40;;;;;;;2.20;1.70;;;17.30;1.00;;;;;;5018204;28;20419;-72
2024/04/03 09:51:06;;;;;;;2.20;1.90;;;17.40;1.00;;;;;;5027999;28;20455;-70
2024/04/03 09:53:33;;;;;;;3.30;2.00;;;17.60;1.00;;;;;;5020819;28;20873;-71
2024/04/03 09:56:00;;;;;;;3.17;2.30;;;18.00;1.00;;;;;;5025944;28;20211;-71
2024/04/03 09:58:28;;;;;;;2.23;1.90;;;18.10;1.00;;;;;;5022056;28;20441;-70
2024/04/03 10:00:58;;;;;;;3.60;2.60;;;18.10;1.00;;;;;;5013540;28;20427;-70
2024/04/03 10:03:25;;;;;;;3.27;2.20;;;17.70;1.00;;;;;;5009780;28;20978;-70
2024/04/03 10:05:59;;;;;;;2.47;1.50;;;17.60;1.00;;;;;;5014017;28;20440;-70
2024/04/03 10:08:34;;;;;;;2.00;1.80;;;17.10;1.00;;;;;;5012737;28;20918;-70
2024/04/03 10:11:12;;;;;;;2.13;1.77;;;16.70;1.00;;;;;;5017438;28;20450;-70
2024/04/03 10:13:39;;;;;;;2.23;1.90;;;16.50;1.00;;;;;;5016083;28;20464;-69
2024/04/03 10:16:09;;;;;;;2.17;1.73;;;16.30;1.00;;;;;;5014883;28;20467;-70
2024/04/03 10:18:36;;;;;;;2.60;1.50;;;15.80;1.00;;;;;;5014368;28;20484;-70
2024/04/03 10:21:03;;;;;;;4.17;2.10;;;15.40;1.00;;;;;;5020846;28;20905;-70
2024/04/03 10:23:28;;;;;;;1.93;1.50;;;15.60;1.00;;;;;;5014641;28;20478;-71
2024/04/03 10:25:56;;;;;;;1.70;1.33;;;15.50;1.00;;;;;;5016108;28;20918;-69
2024/04/03 10:28:21;;;;;;;5.13;1.27;;;15.40;1.00;;;;;;5018481;28;20195;-73
2024/04/03 10:30:55;;;;;;;3.60;1.57;;;15.50;1.00;;;;;;5019799;28;20525;-70
2024/04/03 10:33:21;;;;;;;1.80;1.20;;;15.40;1.00;;;;;;5017683;28;20221;-69
2024/04/03 10:35:48;;;;;;;2.40;1.30;;;15.40;1.00;;;;;;5015641;28;20524;-69
2024/04/03 10:38:14;;;;;;;2.60;1.40;;;15.20;1.00;;;;;;5028536;28;20437;-71
2024/04/03 10:40:39;;;;;;;1.63;1.00;;;14.80;1.00;;;;;;5022924;28;20488;-70
2024/04/03 10:43:05;;;;;;;1.70;1.00;;;14.70;1.00;;;;;;5012216;28;20459;-69
2024/04/03 10:45:31;;;;;;;1.47;0.73;;;14.90;1.00;;;;;;5017318;28;20303;-70
2024/04/03 10:47:56;;;;;;;1.80;1.17;;;14.80;1.00;;;;;;5015412;28;20183;-73
2024/04/03 10:50:22;;;;;;;2.10;1.40;;;15.20;1.00;;;;;;5014353;28;20662;-71
2024/04/03 10:52:50;;;;;;;2.33;1.13;;;15.10;1.00;;;;;;5012776;28;21020;-71
2024/04/03 10:55:19;;;;;;;1.97;1.07;;;15.30;1.00;;;;;;5021671;28;20500;-69
2024/04/03 10:57:47;;;;;;;2.37;0.90;;;15.20;1.00;;;;;;5015778;28;20485;-68
2024/04/03 11:00:14;;;;;;;1.70;0.80;;;14.90;1.00;;;;;;5013592;28;21116;-69
2024/04/03 11:02:46;;;;;;;2.33;1.13;;;14.50;1.00;;;;;;5026377;28;20434;-68
2024/04/03 11:05:14;;;;;;;2.03;0.80;;;14.30;1.00;;;;;;5035206;28;20425;-69
2024/04/03 11:07:42;;;;;;;1.67;0.70;;;14.50;1.00;;;;;;5031636;28;20521;-68
2024/04/03 11:10:10;;;;;;;2.27;1.10;;;14.30;1.00;;;;;;5024113;28;20429;-68
2024/04/03 11:12:37;;;;;;;1.90;0.80;;;14.30;1.00;;;;;;5012589;28;21871;-68
2024/04/03 11:15:03;;;;;;;1.60;0.80;;;14.70;1.00;;;;;;5012644;28;20557;-67
2024/04/03 11:17:28;;;;;;;1.50;0.83;;;14.90;1.00;;;;;;5012476;28;20522;-68
2024/04/03 11:19:54;;;;;;;1.80;0.90;;;15.30;1.00;;;;;;5012514;28;20501;-69
2024/04/03 11:22:19;;;;;;;1.57;0.70;;;15.40;1.00;;;;;;5014984;28;20187;-70
2024/04/03 11:24:45;;;;;;;1.70;0.90;;;15.80;1.00;;;;;;5031430;28;20219;-68
2024/04/03 11:27:11;;;;;;;2.40;1.10;;;15.90;1.00;;;;;;5032571;28;20787;-68
2024/04/03 11:29:38;;;;;;;2.00;1.10;;;15.30;1.00;;;;;;5032350;28;20666;-68
2024/04/03 11:32:04;;;;;;;2.00;0.93;;;15.10;1.00;;;;;;5032629;28;20266;-69
2024/04/03 11:34:30;;;;;;;1.70;0.90;;;15.50;1.00;;;;;;5031895;28;20564;-68
2024/04/03 11:36:56;;;;;;;2.93;1.23;;;15.70;1.00;;;;;;5018039;28;20415;-70
2024/04/03 11:39:22;;;;;;;4.33;0.90;;;15.90;1.00;;;;;;5011631;28;20262;-69
2024/04/03 11:41:48;;;;;;;1.70;0.90;;;15.30;1.00;;;;;;5013934;28;20461;-72
2024/04/03 11:44:14;;;;;;;1.50;0.90;;;15.40;1.00;;;;;;5017727;28;20466;-71
2024/04/03 11:46:41;;;;;;;2.00;1.20;;;14.70;1.00;;;;;;5018171;28;20255;-71
2024/04/03 11:49:06;;;;;;;1.60;0.80;;;14.60;1.00;;;;;;5018232;28;20452;-70
2024/04/03 11:51:32;;;;;;;1.70;1.10;;;14.60;1.00;;;;;;5038769;28;20430;-70
2024/04/03 11:53:58;;;;;;;1.70;0.90;;;14.70;1.00;;;;;;5038393;28;20274;-70
2024/04/03 11:56:24;;;;;;;2.17;1.20;;;14.80;1.00;;;;;;5037047;28;20193;-70
2024/04/03 11:58:53;;;;;;;1.87;1.17;;;14.80;1.00;;;;;;5027907;28;20172;-70
2024/04/03 12:01:22;;;;;;;1.47;0.70;;;15.00;1.00;;;;;;5019348;28;20522;-69
2024/04/03 12:03:47;;;;;;;2.30;1.23;;;14.40;1.00;;;;;;5018856;28;20438;-69
2024/04/03 12:06:13;;;;;;;1.90;1.00;;;14.70;1.00;;;;;;5019659;28;20500;-69
2024/04/03 12:08:39;;;;;;;1.80;0.90;;;14.70;1.00;;;;;;5015667;28;20183;-69
2024/04/03 12:11:06;;;;;;;1.77;1.00;;;14.60;1.00;;;;;;5017386;28;20191;-68
2024/04/03 12:13:32;;;;;;;1.80;1.00;;;14.60;1.00;;;;;;5019130;28;20241;-70
2024/04/03 12:16:01;;;;;;;1.63;0.73;;;13.90;1.00;;;;;;5018560;28;20458;-69
2024/04/03 12:18:37;;;;;;;1.40;0.70;;;13.80;1.00;;;;;;5015263;28;20425;-69
2024/04/03 12:21:04;;;;;;;1.53;0.80;;;13.70;1.00;;;;;;5015244;28;20520;-68
2024/04/03 12:23:30;;;;;;;3.47;0.93;;;14.00;1.00;;;;;;5016216;28;20950;-69
2024/04/03 12:25:56;;;;;;;1.47;0.80;;;14.40;1.00;;;;;;5021725;28;20538;-69
2024/04/03 12:28:21;;;;;;;1.40;0.70;;;14.20;1.00;;;;;;5031835;28;20475;-70
2024/04/03 12:30:47;;;;;;;1.83;1.00;;;14.20;1.00;;;;;;5026526;28;20183;-69
2024/04/03 12:33:13;;;;;;;1.53;0.90;;;14.20;1.00;;;;;;5011343;28;20207;-67
2024/04/03 12:35:38;;;;;;;2.17;0.80;;;14.40;1.00;;;;;;5011821;28;20290;-70
2024/04/03 12:38:04;;;;;;;1.50;0.83;;;14.40;1.00;;;;;;5011108;28;20640;-70
2024/04/03 12:40:29;;;;;;;1.50;0.80;;;13.90;1.00;;;;;;5011675;28;20242;-69
2024/04/03 12:42:55;;;;;;;1.70;0.80;;;14.00;1.00;;;;;;5009785;28;20219;-69
2024/04/03 12:45:21;;;;;;;1.40;0.70;;;14.40;1.00;;;;;;5009856;28;20647;-70
2024/04/03 12:47:47;;;;;;;1.80;0.80;;;14.40;1.00;;;;;;5011922;28;20187;-69
2024/04/03 12:50:12;;;;;;;1.50;0.80;;;14.80;1.00;;;;;;5011154;28;20504;-70
2024/04/03 12:52:38;;;;;;;1.60;0.70;;;14.80;1.00;;;;;;5010939;28;20658;-70
2024/04/03 12:55:04;;;;;;;2.47;0.77;;;14.70;1.00;;;;;;5015843;28;20629;-70
2024/04/03 12:57:30;;;;;;;1.50;0.70;;;14.70;1.00;;;;;;5031251;28;20179;-71
2024/04/03 12:59:56;;;;;;;1.50;0.70;;;14.70;1.00;;;;;;5030388;28;20465;-69
2024/04/03 13:02:21;;;;;;;1.60;0.60;;;14.40;1.00;;;;;;5029587;28;20598;-69
2024/04/03 13:04:47;;;;;;;1.37;0.60;;;13.80;1.00;;;;;;5030778;28;20186;-69